Aelvsbyn, Sweden

5:02 PM CEST on July 05, 2015 (GMT +0200)
Kusan Boden | | Change Station
CLOSE
Current Station
Personal Weather Station
Location: Boden, BD
Elevation: 6 ft
Nearby Weather Stations

Elev 6 ft 65.85 °N, 21.53 °E | Updated 7 seconds ago

Scattered Clouds
Scattered Clouds
69.6 °F
Feels Like 69.6 °F
N
0.6
Wind Variable Wind from SE
Gusts 3.8 mph

Today
High -- | Low -- °F
--% Chance of Precip.
Yesterday
High -- | Low -- °F
Precip. -- in
1:37 AM 11:39 PM
Waning Gibbous, 84% visible
Pressure 30.12 in
Visibility 6.2 miles
Clouds Scattered Clouds 7200 ft
Dew Point 41 °F
Humidity 35%
Rainfall 0.00 in
Snow Depth Not available.
UV 3 out of 12
Pollen Not available.
Air Quality Not available.
Flu Activity Not available.
METAR ESPE 051450Z AUTO VRB02KT 9999 SCT072/// 15/01 Q1020

More Conditions Fewer Conditions

Pressure 30.12 in
Visibility 6.2 miles
Clouds Scattered Clouds 7200 ft
Dew Point 41 °F
Humidity 35%
Rainfall 0.00 in
Snow Depth Not available.
UV 3 out of 12
Pollen Not available.
Air Quality Not available.
Flu Activity Not available.
METAR ESPE 051450Z AUTO VRB02KT 9999 SCT072/// 15/01 Q1020

More Conditions Fewer Conditions

10-Day Weather Forecast

×

Almanac

Astronomy

Jul. 05, 2015 Rise Set
Actual Time
Civil Twilight
Nautical Twilight
Astronomical Twilight
Moon
Length of Visible Light
Length of Day
Tomorrow will be .
, % of the Moon is Illuminated

Today's Extremes

Country Highs Country Lows

Community

WunderPhotos

Upload Photos

1,835,280 photos uploaded!

WunderBlogs® & News

Nearby

Air Quality

  Air Quality AQ Index Pollutant
Not available.

Snow Depth

Station Depth Elevation

Earthquake Activity

City Distance Mag. Time & Date
Minimum magnitude displayed is 2.5.

Coastal Water Temperatures

Place Temperature

Stations

Nearby Weather Stations

Station Location Temp. Windchill Dew Point Humidity Wind Precip. Elev Updated Type